Belmont, Canada
Current Conditions -  °F | °C
As of 6:27 PM on Thursday 18 Dec 2014 (Local Time) from CYHZ Reporting Station
Snow Showers Snow Showers  
Wind Chill: 26°   Ceiling: 2200
Heat Index: 34°   Visibility: 6mi
Dew Point: 32°   Wind: 9mph
Humidity: 93%   Direction: 220°SW
Pressure: 29.4"   Gusts: NA
Location:  45.42°N, 63.38°W
Report Text: CYHZ 182227Z 22008KT 6SM -SHSN SCT004 BKN022 OVC038 01/00 A2940 RMK SF4SC2SC2 SLP960
Loading
Personal Weather Stations






























Interactive Weather Map New forecast layout! Learn more

10-Day Weather Forecast

Advertisements
Track Severe Weather on mobile